sensor_id;sensor_type;location;lat;lon;timestamp;P1;durP1;ratioP1;P2;durP2;ratioP2
9128;SDS011;4599;50.906;6.786;2022-10-16T00:01:49;2.10;;;1.20;;
9128;SDS011;4599;50.906;6.786;2022-10-16T00:05:51;1.77;;;1.20;;
9128;SDS011;4599;50.906;6.786;2022-10-16T00:09:54;2.80;;;1.30;;
9128;SDS011;4599;50.906;6.786;2022-10-16T00:13:57;3.10;;;1.50;;
9128;SDS011;4599;50.906;6.786;2022-10-16T00:18:00;3.50;;;1.40;;
9128;SDS011;4599;50.906;6.786;2022-10-16T00:22:01;3.57;;;1.30;;
9128;SDS011;4599;50.906;6.786;2022-10-16T00:26:05;2.43;;;1.30;;
9128;SDS011;4599;50.906;6.786;2022-10-16T00:30:08;1.30;;;1.20;;
9128;SDS011;4599;50.906;6.786;2022-10-16T00:34:10;2.60;;;1.20;;
9128;SDS011;4599;50.906;6.786;2022-10-16T00:38:11;2.13;;;1.30;;
9128;SDS011;4599;50.906;6.786;2022-10-16T00:42:15;2.97;;;1.30;;
9128;SDS011;4599;50.906;6.786;2022-10-16T00:46:19;3.07;;;1.30;;
9128;SDS011;4599;50.906;6.786;2022-10-16T00:50:24;2.73;;;1.23;;
9128;SDS011;4599;50.906;6.786;2022-10-16T00:54:30;3.10;;;1.37;;
9128;SDS011;4599;50.906;6.786;2022-10-16T00:58:34;2.33;;;1.30;;
9128;SDS011;4599;50.906;6.786;2022-10-16T01:02:36;10.10;;;1.27;;
9128;SDS011;4599;50.906;6.786;2022-10-16T01:06:39;3.30;;;1.43;;
9128;SDS011;4599;50.906;6.786;2022-10-16T01:10:48;3.70;;;1.33;;
9128;SDS011;4599;50.906;6.786;2022-10-16T01:14:57;3.53;;;1.43;;
9128;SDS011;4599;50.906;6.786;2022-10-16T01:19:06;6.77;;;1.37;;
9128;SDS011;4599;50.906;6.786;2022-10-16T01:23:19;6.63;;;1.33;;
9128;SDS011;4599;50.906;6.786;2022-10-16T01:27:28;2.20;;;1.30;;
9128;SDS011;4599;50.906;6.786;2022-10-16T01:31:35;5.73;;;1.27;;
9128;SDS011;4599;50.906;6.786;2022-10-16T01:35:41;2.43;;;1.30;;
9128;SDS011;4599;50.906;6.786;2022-10-16T01:39:46;3.33;;;1.50;;
9128;SDS011;4599;50.906;6.786;2022-10-16T01:43:52;4.00;;;1.50;;
9128;SDS011;4599;50.906;6.786;2022-10-16T01:48:00;2.27;;;1.43;;
9128;SDS011;4599;50.906;6.786;2022-10-16T01:52:04;5.80;;;1.40;;
9128;SDS011;4599;50.906;6.786;2022-10-16T01:56:10;3.00;;;1.40;;
9128;SDS011;4599;50.906;6.786;2022-10-16T02:00:15;5.87;;;1.83;;
9128;SDS011;4599;50.906;6.786;2022-10-16T02:04:21;2.83;;;1.37;;
9128;SDS011;4599;50.906;6.786;2022-10-16T02:08:28;5.57;;;1.50;;
9128;SDS011;4599;50.906;6.786;2022-10-16T02:12:32;4.20;;;1.37;;
9128;SDS011;4599;50.906;6.786;2022-10-16T02:16:39;1.87;;;1.30;;
9128;SDS011;4599;50.906;6.786;2022-10-16T02:20:43;3.30;;;1.20;;
9128;SDS011;4599;50.906;6.786;2022-10-16T02:24:58;3.50;;;1.10;;
9128;SDS011;4599;50.906;6.786;2022-10-16T02:29:04;1.30;;;1.20;;
9128;SDS011;4599;50.906;6.786;2022-10-16T02:33:11;4.13;;;1.13;;
9128;SDS011;4599;50.906;6.786;2022-10-16T02:37:15;2.53;;;1.27;;
9128;SDS011;4599;50.906;6.786;2022-10-16T02:41:18;7.33;;;1.10;;
9128;SDS011;4599;50.906;6.786;2022-10-16T02:45:19;2.73;;;0.93;;
9128;SDS011;4599;50.906;6.786;2022-10-16T02:49:23;1.47;;;0.97;;
9128;SDS011;4599;50.906;6.786;2022-10-16T02:53:24;4.27;;;1.00;;
9128;SDS011;4599;50.906;6.786;2022-10-16T02:57:26;2.53;;;0.90;;
9128;SDS011;4599;50.906;6.786;2022-10-16T03:01:28;2.87;;;1.20;;
9128;SDS011;4599;50.906;6.786;2022-10-16T03:05:31;2.83;;;1.00;;
9128;SDS011;4599;50.906;6.786;2022-10-16T03:09:33;1.13;;;1.00;;
9128;SDS011;4599;50.906;6.786;2022-10-16T03:13:34;4.23;;;1.10;;
9128;SDS011;4599;50.906;6.786;2022-10-16T03:17:36;2.20;;;0.83;;
9128;SDS011;4599;50.906;6.786;2022-10-16T03:21:39;2.43;;;1.07;;
9128;SDS011;4599;50.906;6.786;2022-10-16T03:25:40;1.40;;;0.80;;
9128;SDS011;4599;50.906;6.786;2022-10-16T03:29:42;2.67;;;0.90;;
9128;SDS011;4599;50.906;6.786;2022-10-16T03:33:43;1.13;;;0.90;;
9128;SDS011;4599;50.906;6.786;2022-10-16T03:37:46;7.93;;;1.30;;
9128;SDS011;4599;50.906;6.786;2022-10-16T03:41:47;1.63;;;0.80;;
9128;SDS011;4599;50.906;6.786;2022-10-16T03:45:49;3.83;;;0.77;;
9128;SDS011;4599;50.906;6.786;2022-10-16T03:49:51;2.03;;;1.00;;
9128;SDS011;4599;50.906;6.786;2022-10-16T03:53:54;1.23;;;0.77;;
9128;SDS011;4599;50.906;6.786;2022-10-16T03:57:55;1.43;;;0.90;;
9128;SDS011;4599;50.906;6.786;2022-10-16T04:01:56;1.50;;;0.67;;
9128;SDS011;4599;50.906;6.786;2022-10-16T04:05:58;3.37;;;0.80;;
9128;SDS011;4599;50.906;6.786;2022-10-16T04:10:01;0.80;;;0.80;;
9128;SDS011;4599;50.906;6.786;2022-10-16T04:14:03;6.03;;;0.83;;
9128;SDS011;4599;50.906;6.786;2022-10-16T04:18:05;4.00;;;1.20;;
9128;SDS011;4599;50.906;6.786;2022-10-16T04:22:07;1.93;;;0.90;;
9128;SDS011;4599;50.906;6.786;2022-10-16T04:26:10;3.53;;;0.80;;
9128;SDS011;4599;50.906;6.786;2022-10-16T04:30:11;1.67;;;0.80;;
9128;SDS011;4599;50.906;6.786;2022-10-16T04:34:13;5.97;;;0.80;;
9128;SDS011;4599;50.906;6.786;2022-10-16T04:38:14;3.40;;;1.10;;
9128;SDS011;4599;50.906;6.786;2022-10-16T04:42:17;0.80;;;0.80;;
9128;SDS011;4599;50.906;6.786;2022-10-16T04:46:19;3.17;;;0.80;;
9128;SDS011;4599;50.906;6.786;2022-10-16T04:50:21;1.63;;;0.83;;
9128;SDS011;4599;50.906;6.786;2022-10-16T04:54:22;2.03;;;0.67;;
9128;SDS011;4599;50.906;6.786;2022-10-16T04:58:25;1.47;;;0.80;;
9128;SDS011;4599;50.906;6.786;2022-10-16T05:02:27;1.00;;;0.80;;
9128;SDS011;4599;50.906;6.786;2022-10-16T05:06:28;1.63;;;0.83;;
9128;SDS011;4599;50.906;6.786;2022-10-16T05:10:30;2.90;;;1.27;;
9128;SDS011;4599;50.906;6.786;2022-10-16T05:14:33;2.63;;;0.80;;
9128;SDS011;4599;50.906;6.786;2022-10-16T05:18:35;2.60;;;1.10;;
9128;SDS011;4599;50.906;6.786;2022-10-16T05:22:36;4.13;;;1.00;;
9128;SDS011;4599;50.906;6.786;2022-10-16T05:26:40;1.23;;;0.90;;
9128;SDS011;4599;50.906;6.786;2022-10-16T05:30:43;3.47;;;0.97;;
9128;SDS011;4599;50.906;6.786;2022-10-16T05:34:45;1.33;;;1.10;;
9128;SDS011;4599;50.906;6.786;2022-10-16T05:38:49;2.07;;;1.00;;
9128;SDS011;4599;50.906;6.786;2022-10-16T05:42:54;2.50;;;0.90;;
9128;SDS011;4599;50.906;6.786;2022-10-16T05:46:57;1.33;;;0.90;;
9128;SDS011;4599;50.906;6.786;2022-10-16T05:50:59;1.13;;;0.80;;
9128;SDS011;4599;50.906;6.786;2022-10-16T05:55:01;1.37;;;0.90;;
9128;SDS011;4599;50.906;6.786;2022-10-16T05:59:03;2.17;;;0.80;;
9128;SDS011;4599;50.906;6.786;2022-10-16T06:03:07;2.00;;;0.90;;
9128;SDS011;4599;50.906;6.786;2022-10-16T06:07:09;1.80;;;0.90;;
9128;SDS011;4599;50.906;6.786;2022-10-16T06:11:10;6.03;;;0.90;;
9128;SDS011;4599;50.906;6.786;2022-10-16T06:15:13;4.53;;;1.30;;
9128;SDS011;4599;50.906;6.786;2022-10-16T06:19:16;5.23;;;1.00;;
9128;SDS011;4599;50.906;6.786;2022-10-16T06:23:18;6.87;;;1.87;;
9128;SDS011;4599;50.906;6.786;2022-10-16T06:27:19;6.83;;;1.20;;
9128;SDS011;4599;50.906;6.786;2022-10-16T06:31:21;4.73;;;1.33;;
9128;SDS011;4599;50.906;6.786;2022-10-16T06:35:24;3.57;;;1.03;;
9128;SDS011;4599;50.906;6.786;2022-10-16T06:39:26;5.00;;;1.50;;
9128;SDS011;4599;50.906;6.786;2022-10-16T06:43:28;3.78;;;1.40;;
9128;SDS011;4599;50.906;6.786;2022-10-16T06:47:30;4.23;;;1.63;;
9128;SDS011;4599;50.906;6.786;2022-10-16T06:51:33;2.03;;;1.17;;
9128;SDS011;4599;50.906;6.786;2022-10-16T06:55:39;2.80;;;1.10;;
9128;SDS011;4599;50.906;6.786;2022-10-16T06:59:40;2.57;;;1.27;;
9128;SDS011;4599;50.906;6.786;2022-10-16T07:03:47;5.77;;;1.17;;
9128;SDS011;4599;50.906;6.786;2022-10-16T07:07:50;4.50;;;1.27;;
9128;SDS011;4599;50.906;6.786;2022-10-16T07:11:51;3.07;;;1.10;;
9128;SDS011;4599;50.906;6.786;2022-10-16T07:15:53;0.90;;;0.90;;
9128;SDS011;4599;50.906;6.786;2022-10-16T07:19:54;3.93;;;1.20;;
9128;SDS011;4599;50.906;6.786;2022-10-16T07:23:58;2.73;;;0.90;;
9128;SDS011;4599;50.906;6.786;2022-10-16T07:28:00;7.17;;;1.00;;
9128;SDS011;4599;50.906;6.786;2022-10-16T07:32:02;2.87;;;1.00;;
9128;SDS011;4599;50.906;6.786;2022-10-16T07:36:04;1.20;;;0.87;;
9128;SDS011;4599;50.906;6.786;2022-10-16T07:40:08;1.30;;;1.10;;
9128;SDS011;4599;50.906;6.786;2022-10-16T07:44:10;4.83;;;2.07;;
9128;SDS011;4599;50.906;6.786;2022-10-16T07:48:12;3.50;;;2.70;;
9128;SDS011;4599;50.906;6.786;2022-10-16T07:52:13;8.63;;;4.20;;
9128;SDS011;4599;50.906;6.786;2022-10-16T07:56:17;6.13;;;3.50;;
9128;SDS011;4599;50.906;6.786;2022-10-16T08:00:19;4.57;;;2.63;;
9128;SDS011;4599;50.906;6.786;2022-10-16T08:04:21;4.37;;;1.73;;
9128;SDS011;4599;50.906;6.786;2022-10-16T08:08:22;2.30;;;1.13;;
9128;SDS011;4599;50.906;6.786;2022-10-16T08:12:25;1.80;;;1.10;;
9128;SDS011;4599;50.906;6.786;2022-10-16T08:16:27;1.43;;;1.00;;
9128;SDS011;4599;50.906;6.786;2022-10-16T08:20:29;3.53;;;1.00;;
9128;SDS011;4599;50.906;6.786;2022-10-16T08:24:32;2.27;;;0.90;;
9128;SDS011;4599;50.906;6.786;2022-10-16T08:28:35;1.47;;;0.90;;
9128;SDS011;4599;50.906;6.786;2022-10-16T08:32:37;1.00;;;0.80;;
9128;SDS011;4599;50.906;6.786;2022-10-16T08:36:38;1.23;;;0.90;;
9128;SDS011;4599;50.906;6.786;2022-10-16T08:40:41;1.77;;;0.90;;
9128;SDS011;4599;50.906;6.786;2022-10-16T08:45:07;0.80;;;0.80;;
9128;SDS011;4599;50.906;6.786;2022-10-16T08:49:20;0.83;;;0.83;;
9128;SDS011;4599;50.906;6.786;2022-10-16T08:53:23;2.07;;;0.90;;
9128;SDS011;4599;50.906;6.786;2022-10-16T08:57:29;0.90;;;0.90;;
9128;SDS011;4599;50.906;6.786;2022-10-16T09:01:35;1.27;;;1.10;;
9128;SDS011;4599;50.906;6.786;2022-10-16T09:05:47;0.70;;;0.70;;
9128;SDS011;4599;50.906;6.786;2022-10-16T09:10:09;0.93;;;0.90;;
9128;SDS011;4599;50.906;6.786;2022-10-16T09:14:28;1.50;;;0.70;;
9128;SDS011;4599;50.906;6.786;2022-10-16T09:18:43;2.50;;;0.80;;
9128;SDS011;4599;50.906;6.786;2022-10-16T09:22:50;2.83;;;0.80;;
9128;SDS011;4599;50.906;6.786;2022-10-16T09:26:54;2.17;;;0.90;;
9128;SDS011;4599;50.906;6.786;2022-10-16T09:30:56;0.70;;;0.60;;
9128;SDS011;4599;50.906;6.786;2022-10-16T09:34:59;5.00;;;0.90;;
9128;SDS011;4599;50.906;6.786;2022-10-16T09:39:04;2.20;;;0.83;;
9128;SDS011;4599;50.906;6.786;2022-10-16T09:43:13;1.47;;;1.00;;
9128;SDS011;4599;50.906;6.786;2022-10-16T09:47:22;1.80;;;0.73;;
9128;SDS011;4599;50.906;6.786;2022-10-16T09:51:29;1.50;;;0.87;;
9128;SDS011;4599;50.906;6.786;2022-10-16T09:55:32;1.43;;;0.77;;
9128;SDS011;4599;50.906;6.786;2022-10-16T09:59:33;1.97;;;0.70;;
9128;SDS011;4599;50.906;6.786;2022-10-16T10:03:35;0.60;;;0.60;;
9128;SDS011;4599;50.906;6.786;2022-10-16T10:07:42;2.87;;;0.90;;
9128;SDS011;4599;50.906;6.786;2022-10-16T10:11:46;2.53;;;1.07;;
9128;SDS011;4599;50.906;6.786;2022-10-16T10:15:50;3.13;;;0.90;;
9128;SDS011;4599;50.906;6.786;2022-10-16T10:19:52;1.23;;;0.70;;
9128;SDS011;4599;50.906;6.786;2022-10-16T10:23:56;0.90;;;0.73;;
9128;SDS011;4599;50.906;6.786;2022-10-16T10:28:10;1.93;;;0.83;;
9128;SDS011;4599;50.906;6.786;2022-10-16T10:32:23;1.37;;;0.70;;
9128;SDS011;4599;50.906;6.786;2022-10-16T10:36:33;1.70;;;0.90;;
9128;SDS011;4599;50.906;6.786;2022-10-16T10:40:43;1.80;;;0.80;;
9128;SDS011;4599;50.906;6.786;2022-10-16T10:44:53;4.07;;;0.97;;
9128;SDS011;4599;50.906;6.786;2022-10-16T10:49:08;1.83;;;0.80;;
9128;SDS011;4599;50.906;6.786;2022-10-16T10:53:21;3.57;;;0.90;;
9128;SDS011;4599;50.906;6.786;2022-10-16T10:57:32;2.47;;;0.77;;
9128;SDS011;4599;50.906;6.786;2022-10-16T11:01:39;1.40;;;0.80;;
9128;SDS011;4599;50.906;6.786;2022-10-16T11:05:47;0.80;;;0.77;;
9128;SDS011;4599;50.906;6.786;2022-10-16T11:09:53;1.17;;;0.60;;
9128;SDS011;4599;50.906;6.786;2022-10-16T11:14:02;3.53;;;0.80;;
9128;SDS011;4599;50.906;6.786;2022-10-16T11:18:08;2.40;;;0.80;;
9128;SDS011;4599;50.906;6.786;2022-10-16T11:22:20;2.37;;;0.70;;
9128;SDS011;4599;50.906;6.786;2022-10-16T11:26:29;4.13;;;0.90;;
9128;SDS011;4599;50.906;6.786;2022-10-16T11:30:40;1.63;;;0.77;;
9128;SDS011;4599;50.906;6.786;2022-10-16T11:34:47;1.35;;;0.80;;
9128;SDS011;4599;50.906;6.786;2022-10-16T11:38:54;1.88;;;0.90;;
9128;SDS011;4599;50.906;6.786;2022-10-16T11:43:04;1.13;;;0.70;;
9128;SDS011;4599;50.906;6.786;2022-10-16T11:47:25;0.80;;;0.80;;
9128;SDS011;4599;50.906;6.786;2022-10-16T11:51:55;2.40;;;0.80;;
9128;SDS011;4599;50.906;6.786;2022-10-16T11:56:03;1.63;;;0.93;;
9128;SDS011;4599;50.906;6.786;2022-10-16T12:00:06;1.17;;;0.70;;
9128;SDS011;4599;50.906;6.786;2022-10-16T12:04:19;1.27;;;0.90;;
9128;SDS011;4599;50.906;6.786;2022-10-16T12:08:25;3.07;;;0.90;;
9128;SDS011;4599;50.906;6.786;2022-10-16T12:12:37;1.17;;;0.70;;
9128;SDS011;4599;50.906;6.786;2022-10-16T12:16:50;2.07;;;0.90;;
9128;SDS011;4599;50.906;6.786;2022-10-16T12:20:57;2.80;;;1.03;;
9128;SDS011;4599;50.906;6.786;2022-10-16T12:24:59;1.60;;;0.80;;
9128;SDS011;4599;50.906;6.786;2022-10-16T12:29:10;1.43;;;0.80;;
9128;SDS011;4599;50.906;6.786;2022-10-16T12:33:19;2.73;;;1.00;;
9128;SDS011;4599;50.906;6.786;2022-10-16T12:37:24;0.63;;;0.63;;
9128;SDS011;4599;50.906;6.786;2022-10-16T12:41:28;2.17;;;0.80;;
9128;SDS011;4599;50.906;6.786;2022-10-16T12:45:32;3.83;;;1.20;;
9128;SDS011;4599;50.906;6.786;2022-10-16T12:49:36;1.37;;;0.70;;
9128;SDS011;4599;50.906;6.786;2022-10-16T12:53:40;2.40;;;0.90;;
9128;SDS011;4599;50.906;6.786;2022-10-16T12:57:43;3.33;;;0.90;;
9128;SDS011;4599;50.906;6.786;2022-10-16T13:02:06;1.80;;;0.80;;
9128;SDS011;4599;50.906;6.786;2022-10-16T13:06:27;1.83;;;0.80;;
9128;SDS011;4599;50.906;6.786;2022-10-16T13:10:37;3.40;;;0.87;;
9128;SDS011;4599;50.906;6.786;2022-10-16T13:14:49;1.97;;;0.90;;
9128;SDS011;4599;50.906;6.786;2022-10-16T13:19:15;1.17;;;0.70;;
9128;SDS011;4599;50.906;6.786;2022-10-16T13:23:23;4.50;;;0.90;;
9128;SDS011;4599;50.906;6.786;2022-10-16T13:27:35;1.40;;;0.70;;
9128;SDS011;4599;50.906;6.786;2022-10-16T13:31:46;1.40;;;0.70;;
9128;SDS011;4599;50.906;6.786;2022-10-16T13:35:49;1.43;;;0.90;;
9128;SDS011;4599;50.906;6.786;2022-10-16T13:39:51;1.57;;;0.80;;
9128;SDS011;4599;50.906;6.786;2022-10-16T13:44:12;5.50;;;0.80;;
9128;SDS011;4599;50.906;6.786;2022-10-16T13:48:18;2.77;;;1.10;;
9128;SDS011;4599;50.906;6.786;2022-10-16T13:52:20;1.07;;;0.70;;
9128;SDS011;4599;50.906;6.786;2022-10-16T13:56:22;1.70;;;0.80;;
9128;SDS011;4599;50.906;6.786;2022-10-16T14:00:28;1.17;;;0.70;;
9128;SDS011;4599;50.906;6.786;2022-10-16T14:04:31;2.57;;;0.80;;
9128;SDS011;4599;50.906;6.786;2022-10-16T14:08:34;0.83;;;0.70;;
9128;SDS011;4599;50.906;6.786;2022-10-16T14:12:35;5.10;;;0.97;;
9128;SDS011;4599;50.906;6.786;2022-10-16T14:16:38;2.37;;;0.80;;
9128;SDS011;4599;50.906;6.786;2022-10-16T14:20:43;1.33;;;0.70;;
9128;SDS011;4599;50.906;6.786;2022-10-16T14:24:44;2.77;;;0.80;;
9128;SDS011;4599;50.906;6.786;2022-10-16T14:28:47;2.03;;;0.77;;
9128;SDS011;4599;50.906;6.786;2022-10-16T14:32:54;1.87;;;0.90;;
9128;SDS011;4599;50.906;6.786;2022-10-16T14:36:58;0.80;;;0.60;;
9128;SDS011;4599;50.906;6.786;2022-10-16T14:41:01;0.67;;;0.67;;
9128;SDS011;4599;50.906;6.786;2022-10-16T14:45:07;0.93;;;0.70;;
9128;SDS011;4599;50.906;6.786;2022-10-16T14:49:15;2.07;;;0.87;;
9128;SDS011;4599;50.906;6.786;2022-10-16T14:53:18;3.50;;;0.70;;
9128;SDS011;4599;50.906;6.786;2022-10-16T14:57:21;2.23;;;0.70;;
9128;SDS011;4599;50.906;6.786;2022-10-16T15:01:25;4.37;;;1.00;;
9128;SDS011;4599;50.906;6.786;2022-10-16T15:05:28;5.97;;;0.80;;
9128;SDS011;4599;50.906;6.786;2022-10-16T15:09:30;1.60;;;0.70;;
9128;SDS011;4599;50.906;6.786;2022-10-16T15:13:31;0.83;;;0.70;;
9128;SDS011;4599;50.906;6.786;2022-10-16T15:17:33;3.20;;;0.90;;
9128;SDS011;4599;50.906;6.786;2022-10-16T15:21:36;1.17;;;0.60;;
9128;SDS011;4599;50.906;6.786;2022-10-16T15:25:38;3.13;;;0.80;;
9128;SDS011;4599;50.906;6.786;2022-10-16T15:29:42;1.80;;;0.70;;
9128;SDS011;4599;50.906;6.786;2022-10-16T15:33:43;1.23;;;0.60;;
9128;SDS011;4599;50.906;6.786;2022-10-16T15:37:47;5.00;;;0.87;;
9128;SDS011;4599;50.906;6.786;2022-10-16T15:41:49;5.83;;;0.80;;
9128;SDS011;4599;50.906;6.786;2022-10-16T15:45:58;7.30;;;0.80;;
9128;SDS011;4599;50.906;6.786;2022-10-16T15:50:01;19.13;;;1.50;;
9128;SDS011;4599;50.906;6.786;2022-10-16T15:54:04;13.53;;;1.30;;
9128;SDS011;4599;50.906;6.786;2022-10-16T15:58:06;2.37;;;0.60;;
9128;SDS011;4599;50.906;6.786;2022-10-16T16:02:08;3.50;;;0.87;;
9128;SDS011;4599;50.906;6.786;2022-10-16T16:06:11;2.70;;;0.80;;
9128;SDS011;4599;50.906;6.786;2022-10-16T16:10:15;3.90;;;0.60;;
9128;SDS011;4599;50.906;6.786;2022-10-16T16:14:17;1.10;;;0.53;;
9128;SDS011;4599;50.906;6.786;2022-10-16T16:18:18;0.67;;;0.67;;
9128;SDS011;4599;50.906;6.786;2022-10-16T16:22:20;1.30;;;0.83;;
9128;SDS011;4599;50.906;6.786;2022-10-16T16:26:23;0.90;;;0.67;;
9128;SDS011;4599;50.906;6.786;2022-10-16T16:30:27;3.13;;;0.90;;
9128;SDS011;4599;50.906;6.786;2022-10-16T16:34:28;2.00;;;0.80;;
9128;SDS011;4599;50.906;6.786;2022-10-16T16:38:31;1.07;;;0.80;;
9128;SDS011;4599;50.906;6.786;2022-10-16T16:42:34;1.67;;;0.70;;
9128;SDS011;4599;50.906;6.786;2022-10-16T16:46:36;2.37;;;0.70;;
9128;SDS011;4599;50.906;6.786;2022-10-16T16:50:38;1.63;;;0.70;;
9128;SDS011;4599;50.906;6.786;2022-10-16T16:54:41;2.13;;;1.00;;
9128;SDS011;4599;50.906;6.786;2022-10-16T16:58:46;1.73;;;0.80;;
9128;SDS011;4599;50.906;6.786;2022-10-16T17:02:48;3.73;;;0.93;;
9128;SDS011;4599;50.906;6.786;2022-10-16T17:06:50;0.87;;;0.70;;
9128;SDS011;4599;50.906;6.786;2022-10-16T17:10:51;1.83;;;0.63;;
9128;SDS011;4599;50.906;6.786;2022-10-16T17:14:54;1.23;;;0.70;;
9128;SDS011;4599;50.906;6.786;2022-10-16T17:18:58;3.43;;;1.07;;
9128;SDS011;4599;50.906;6.786;2022-10-16T17:23:01;3.03;;;1.20;;
9128;SDS011;4599;50.906;6.786;2022-10-16T17:27:02;2.50;;;1.00;;
9128;SDS011;4599;50.906;6.786;2022-10-16T17:31:07;2.50;;;1.00;;
9128;SDS011;4599;50.906;6.786;2022-10-16T17:35:11;1.30;;;0.70;;
9128;SDS011;4599;50.906;6.786;2022-10-16T17:39:13;4.17;;;1.43;;
9128;SDS011;4599;50.906;6.786;2022-10-16T17:43:15;3.03;;;0.80;;
9128;SDS011;4599;50.906;6.786;2022-10-16T17:47:19;1.93;;;1.20;;
9128;SDS011;4599;50.906;6.786;2022-10-16T17:51:21;2.33;;;1.07;;
9128;SDS011;4599;50.906;6.786;2022-10-16T17:55:25;2.93;;;1.20;;
9128;SDS011;4599;50.906;6.786;2022-10-16T17:59:27;3.37;;;1.33;;
9128;SDS011;4599;50.906;6.786;2022-10-16T18:03:30;2.30;;;1.10;;
9128;SDS011;4599;50.906;6.786;2022-10-16T18:07:32;3.97;;;1.10;;
9128;SDS011;4599;50.906;6.786;2022-10-16T18:11:33;5.97;;;1.43;;
9128;SDS011;4599;50.906;6.786;2022-10-16T18:15:35;5.77;;;1.30;;
9128;SDS011;4599;50.906;6.786;2022-10-16T18:19:38;3.17;;;1.30;;
9128;SDS011;4599;50.906;6.786;2022-10-16T18:23:40;1.67;;;1.40;;
9128;SDS011;4599;50.906;6.786;2022-10-16T18:27:52;3.43;;;1.47;;
9128;SDS011;4599;50.906;6.786;2022-10-16T18:31:55;3.33;;;1.63;;
9128;SDS011;4599;50.906;6.786;2022-10-16T18:36:00;1.30;;;1.20;;
9128;SDS011;4599;50.906;6.786;2022-10-16T18:40:02;5.00;;;1.70;;
9128;SDS011;4599;50.906;6.786;2022-10-16T18:44:05;4.73;;;1.73;;
9128;SDS011;4599;50.906;6.786;2022-10-16T18:48:07;4.20;;;1.50;;
9128;SDS011;4599;50.906;6.786;2022-10-16T18:52:10;6.00;;;1.80;;
9128;SDS011;4599;50.906;6.786;2022-10-16T18:56:12;5.20;;;1.70;;
9128;SDS011;4599;50.906;6.786;2022-10-16T19:00:14;6.60;;;1.70;;
9128;SDS011;4599;50.906;6.786;2022-10-16T19:04:16;2.93;;;1.60;;
9128;SDS011;4599;50.906;6.786;2022-10-16T19:08:19;6.57;;;2.03;;
9128;SDS011;4599;50.906;6.786;2022-10-16T19:12:21;6.30;;;2.20;;
9128;SDS011;4599;50.906;6.786;2022-10-16T19:16:23;3.73;;;1.80;;
9128;SDS011;4599;50.906;6.786;2022-10-16T19:20:25;4.17;;;1.80;;
9128;SDS011;4599;50.906;6.786;2022-10-16T19:24:28;4.70;;;1.60;;
9128;SDS011;4599;50.906;6.786;2022-10-16T19:28:30;2.53;;;1.43;;
9128;SDS011;4599;50.906;6.786;2022-10-16T19:32:32;2.40;;;1.47;;
9128;SDS011;4599;50.906;6.786;2022-10-16T19:36:34;6.10;;;1.20;;
9128;SDS011;4599;50.906;6.786;2022-10-16T19:40:38;2.43;;;1.80;;
9128;SDS011;4599;50.906;6.786;2022-10-16T19:44:40;2.77;;;2.00;;
9128;SDS011;4599;50.906;6.786;2022-10-16T19:48:42;2.33;;;1.43;;
9128;SDS011;4599;50.906;6.786;2022-10-16T19:52:44;2.57;;;1.50;;
9128;SDS011;4599;50.906;6.786;2022-10-16T19:56:47;2.73;;;1.50;;
9128;SDS011;4599;50.906;6.786;2022-10-16T20:00:49;1.57;;;1.40;;
9128;SDS011;4599;50.906;6.786;2022-10-16T20:04:50;5.00;;;1.80;;
9128;SDS011;4599;50.906;6.786;2022-10-16T20:08:52;3.40;;;1.50;;
9128;SDS011;4599;50.906;6.786;2022-10-16T20:12:56;3.63;;;1.43;;
9128;SDS011;4599;50.906;6.786;2022-10-16T20:16:58;2.27;;;1.50;;
9128;SDS011;4599;50.906;6.786;2022-10-16T20:20:59;1.80;;;1.50;;
9128;SDS011;4599;50.906;6.786;2022-10-16T20:25:01;3.37;;;1.60;;
9128;SDS011;4599;50.906;6.786;2022-10-16T20:29:10;2.03;;;1.60;;
9128;SDS011;4599;50.906;6.786;2022-10-16T20:33:11;5.37;;;2.00;;
9128;SDS011;4599;50.906;6.786;2022-10-16T20:37:13;4.33;;;1.80;;
9128;SDS011;4599;50.906;6.786;2022-10-16T20:41:15;4.60;;;2.00;;
9128;SDS011;4599;50.906;6.786;2022-10-16T20:45:19;7.60;;;1.90;;
9128;SDS011;4599;50.906;6.786;2022-10-16T20:49:21;7.10;;;2.00;;
9128;SDS011;4599;50.906;6.786;2022-10-16T20:53:40;4.70;;;2.50;;
9128;SDS011;4599;50.906;6.786;2022-10-16T20:57:42;4.63;;;1.80;;
9128;SDS011;4599;50.906;6.786;2022-10-16T21:01:44;4.30;;;1.90;;
9128;SDS011;4599;50.906;6.786;2022-10-16T21:05:46;3.90;;;2.30;;
9128;SDS011;4599;50.906;6.786;2022-10-16T21:09:48;3.87;;;1.77;;
9128;SDS011;4599;50.906;6.786;2022-10-16T21:13:50;6.03;;;2.10;;
9128;SDS011;4599;50.906;6.786;2022-10-16T21:17:53;2.60;;;2.00;;
9128;SDS011;4599;50.906;6.786;2022-10-16T21:21:55;5.60;;;2.23;;
9128;SDS011;4599;50.906;6.786;2022-10-16T21:25:57;3.13;;;2.03;;
9128;SDS011;4599;50.906;6.786;2022-10-16T21:29:59;3.07;;;2.00;;
9128;SDS011;4599;50.906;6.786;2022-10-16T21:34:02;3.57;;;2.10;;
9128;SDS011;4599;50.906;6.786;2022-10-16T21:38:04;5.57;;;2.00;;
9128;SDS011;4599;50.906;6.786;2022-10-16T21:42:05;3.00;;;2.20;;
9128;SDS011;4599;50.906;6.786;2022-10-16T21:46:07;3.37;;;1.90;;
9128;SDS011;4599;50.906;6.786;2022-10-16T21:50:10;3.77;;;2.20;;
9128;SDS011;4599;50.906;6.786;2022-10-16T21:54:12;2.70;;;2.40;;
9128;SDS011;4599;50.906;6.786;2022-10-16T21:58:15;6.23;;;2.93;;
9128;SDS011;4599;50.906;6.786;2022-10-16T22:02:16;4.80;;;3.90;;
9128;SDS011;4599;50.906;6.786;2022-10-16T22:06:20;5.90;;;4.27;;
9128;SDS011;4599;50.906;6.786;2022-10-16T22:10:22;7.37;;;4.40;;
9128;SDS011;4599;50.906;6.786;2022-10-16T22:14:24;7.03;;;4.23;;
9128;SDS011;4599;50.906;6.786;2022-10-16T22:18:26;4.20;;;3.80;;
9128;SDS011;4599;50.906;6.786;2022-10-16T22:22:29;5.03;;;3.77;;
9128;SDS011;4599;50.906;6.786;2022-10-16T22:26:31;7.60;;;3.80;;
9128;SDS011;4599;50.906;6.786;2022-10-16T22:30:33;3.67;;;3.37;;
9128;SDS011;4599;50.906;6.786;2022-10-16T22:34:35;5.90;;;3.50;;
9128;SDS011;4599;50.906;6.786;2022-10-16T22:38:38;4.63;;;3.40;;
9128;SDS011;4599;50.906;6.786;2022-10-16T22:42:40;4.07;;;3.10;;
9128;SDS011;4599;50.906;6.786;2022-10-16T22:46:42;6.23;;;3.10;;
9128;SDS011;4599;50.906;6.786;2022-10-16T22:50:44;4.13;;;3.30;;
9128;SDS011;4599;50.906;6.786;2022-10-16T22:54:46;5.60;;;3.20;;
9128;SDS011;4599;50.906;6.786;2022-10-16T22:58:48;6.77;;;3.57;;
9128;SDS011;4599;50.906;6.786;2022-10-16T23:02:50;11.70;;;4.40;;
9128;SDS011;4599;50.906;6.786;2022-10-16T23:06:52;5.27;;;3.90;;
9128;SDS011;4599;50.906;6.786;2022-10-16T23:10:55;7.00;;;4.30;;
9128;SDS011;4599;50.906;6.786;2022-10-16T23:14:56;7.17;;;4.50;;
9128;SDS011;4599;50.906;6.786;2022-10-16T23:18:58;6.63;;;4.53;;
9128;SDS011;4599;50.906;6.786;2022-10-16T23:22:59;6.63;;;4.37;;
9128;SDS011;4599;50.906;6.786;2022-10-16T23:27:03;6.23;;;3.70;;
9128;SDS011;4599;50.906;6.786;2022-10-16T23:31:05;4.57;;;3.43;;
9128;SDS011;4599;50.906;6.786;2022-10-16T23:35:07;6.13;;;4.00;;
9128;SDS011;4599;50.906;6.786;2022-10-16T23:39:09;7.33;;;4.57;;
9128;SDS011;4599;50.906;6.786;2022-10-16T23:43:12;6.63;;;4.33;;
9128;SDS011;4599;50.906;6.786;2022-10-16T23:47:13;5.40;;;4.40;;
9128;SDS011;4599;50.906;6.786;2022-10-16T23:51:15;7.80;;;4.93;;
9128;SDS011;4599;50.906;6.786;2022-10-16T23:55:17;5.87;;;4.77;;
9128;SDS011;4599;50.906;6.786;2022-10-16T23:59:20;8.63;;;4.87;;
